Time;durP1;ratioP1;P1;durP2;ratioP2;P2;SDS_P1;SDS_P2;PMS_P1;PMS_P2;Temp;Humidity;BMP_temperature;BMP_pressure;BME280_temperature;BME280_humidity;BME280_pressure;Samples;Min_cycle;Max_cycle;Signal;HPM_P1;HPM_P2
2023/06/23 00:00:00;;;;;;;;;;;;;;;24.15;88.61;99781.22;336015;29;1959;-78
2023/06/23 00:00:11;;;;;;;;;;;;;;;24.14;88.53;99783.06;334966;29;2318;-78
2023/06/23 00:00:23;;;;;;;;;;;;;;;24.14;88.61;99775.03;334422;29;1347;-78
2023/06/23 00:00:33;;;;;;;;;;;;;;;24.14;88.47;99780.38;330668;29;1170;-78
2023/06/23 00:00:43;;;;;;;;;;;;;;;24.14;88.61;99780.38;332321;29;733;-78
2023/06/23 00:00:53;;;;;;;;;;;;;;;24.13;88.72;99781.38;334604;29;1395;-78
2023/06/23 00:01:04;;;;;;;;;;;;;;;24.14;88.79;99779.53;334489;29;1573;-78
2023/06/23 00:01:15;;;;;;;;;;;;;;;24.13;88.51;99784.06;332589;29;1755;-78
2023/06/23 00:01:26;;;;;;;;;;;;;;;24.12;89.16;99777.00;329765;29;2040;-77
2023/06/23 00:01:37;;;;;;;;;;;;;;;24.12;89.01;99779.69;327064;30;1561;-77
2023/06/23 00:01:47;;;;;;;;;;;;;;;24.12;89.14;99777.00;326930;30;1422;-77
2023/06/23 00:01:57;;;;;;;;;;;;;;;24.11;88.94;99775.31;325907;30;2293;-77
2023/06/23 00:02:07;;;;;;;;;;;;;;;24.12;88.92;99771.66;326389;29;2663;-77
2023/06/23 00:02:17;;;;;;;;;;;;;;;24.11;88.94;99775.31;327009;30;860;-77
2023/06/23 00:02:28;;;;;;;;;;;;;;;24.12;89.33;99774.34;322501;30;2605;-77
2023/06/23 00:02:41;;;;;;;;;;;;;;;24.11;89.04;99780.69;320008;30;1799;-77
2023/06/23 00:02:51;;;;;;;;;;;;;;;24.12;89.22;99782.34;323516;30;1286;-77
2023/06/23 00:03:01;;;;;;;;;;;;;;;24.11;89.22;99780.69;319751;30;1432;-77
2023/06/23 00:03:12;;;;;;;;;;;;;;;24.11;89.40;99780.69;321736;30;2327;-77
2023/06/23 00:03:22;;;;;;;;;;;;;;;24.10;89.84;99773.63;321672;30;2521;-77
2023/06/23 00:03:33;;;;;;;;;;;;;;;24.09;89.77;99777.31;319618;30;1361;-77
2023/06/23 00:03:45;;;;;;;;;;;;;;;24.10;89.68;99772.78;315560;31;2801;-77
2023/06/23 00:03:55;;;;;;;;;;;;;;;24.09;89.75;99774.63;312707;31;3195;-77
2023/06/23 00:04:05;;;;;;;;;;;;;;;24.07;89.85;99779.28;313151;31;799;-77
2023/06/23 00:04:15;;;;;;;;;;;;;;;24.06;90.27;99782.09;315242;31;3346;-77
2023/06/23 00:04:26;;;;;;;;;;;;;;;24.04;90.19;99776.88;315506;31;3338;-77
2023/06/23 00:04:36;;;;;;;;;;;;;;;24.04;90.21;99768.88;317627;31;857;-77
2023/06/23 00:04:46;;;;;;;;;;;;;;;24.03;90.53;99772.53;314860;31;3249;-77
2023/06/23 00:04:57;;;;;;;;;;;;;;;24.03;90.15;99780.56;314510;31;2121;-77
2023/06/23 00:05:11;;;;;;;;;;;;;;;24.04;90.43;99773.38;313894;31;2049;-77
2023/06/23 00:05:21;;;;;;;;;;;;;;;24.03;90.40;99769.84;316518;31;928;-78
2023/06/23 00:05:31;;;;;;;;;;;;;;;24.04;90.56;99774.22;314697;31;3079;-78
2023/06/23 00:05:41;;;;;;;;;;;;;;;24.03;90.34;99777.88;311933;31;3565;-77
2023/06/23 00:05:52;;;;;;;;;;;;;;;24.02;90.66;99770.84;308674;31;1435;-78
2023/06/23 00:06:03;;;;;;;;;;;;;;;24.03;90.63;99777.88;306331;32;1559;-77
2023/06/23 00:06:14;;;;;;;;;;;;;;;24.02;90.28;99770.00;304792;32;4522;-77
2023/06/23 00:06:24;;;;;;;;;;;;;;;24.02;90.52;99776.19;305695;32;4612;-77
2023/06/23 00:06:34;;;;;;;;;;;;;;;24.02;90.55;99778.88;305423;32;1571;-78
2023/06/23 00:06:46;;;;;;;;;;;;;;;24.02;90.42;99781.53;303045;32;4453;-78
2023/06/23 00:06:59;;;;;;;;;;;;;;;24.01;90.64;99774.50;303158;32;4486;-78
2023/06/23 00:07:09;;;;;;;;;;;;;;;24.01;90.65;99774.50;302883;32;2968;-78
2023/06/23 00:07:19;;;;;;;;;;;;;;;24.02;90.56;99770.84;299681;32;1399;-78
2023/06/23 00:07:30;;;;;;;;;;;;;;;24.01;90.40;99773.66;298341;32;3068;-78
2023/06/23 00:07:40;;;;;;;;;;;;;;;24.00;90.29;99775.50;299888;32;3607;-78
2023/06/23 00:07:51;;;;;;;;;;;;;;;23.99;90.33;99779.16;301261;32;845;-79
2023/06/23 00:08:01;;;;;;;;;;;;;;;23.99;90.19;99765.78;298299;32;5324;-78
2023/06/23 00:08:11;;;;;;;;;;;;;;;24.01;90.48;99779.00;298111;32;6303;-78
2023/06/23 00:08:21;;;;;;;;;;;;;;;24.00;90.60;99778.16;298538;33;1124;-77
2023/06/23 00:08:31;;;;;;;;;;;;;;;24.01;90.41;99773.66;297115;33;5876;-77
2023/06/23 00:08:42;;;;;;;;;;;;;;;24.00;90.58;99774.66;298721;32;6228;-77
2023/06/23 00:08:52;;;;;;;;;;;;;;;24.01;90.49;99779.84;299105;32;5814;-77
2023/06/23 00:09:10;;;;;;;;;;;;;;;24.01;90.21;99774.50;297227;33;1394;-77
2023/06/23 00:09:22;;;;;;;;;;;;;;;24.00;90.54;99778.16;291254;34;1273;-78
2023/06/23 00:09:32;;;;;;;;;;;;;;;24.00;90.28;99777.31;289448;34;765;-78
2023/06/23 00:09:45;;;;;;;;;;;;;;;24.00;90.52;99774.66;287772;34;4437;-78
2023/06/23 00:09:55;;;;;;;;;;;;;;;24.00;90.63;99782.66;285568;34;6793;-76
2023/06/23 00:10:06;;;;;;;;;;;;;;;24.00;90.39;99778.16;282762;34;1272;-76
2023/06/23 00:10:16;;;;;;;;;;;;;;;24.01;90.27;99776.34;278620;34;7528;-76
2023/06/23 00:10:26;;;;;;;;;;;;;;;24.00;90.27;99778.16;279572;34;7815;-76
2023/06/23 00:10:36;;;;;;;;;;;;;;;24.00;90.64;99775.50;282880;35;1535;-76
2023/06/23 00:10:48;;;;;;;;;;;;;;;24.00;90.32;99775.50;277872;34;9895;-76
2023/06/23 00:10:58;;;;;;;;;;;;;;;24.00;90.45;99780.84;276167;35;9687;-76
2023/06/23 00:12:47;;;;;;;;;;;;;;;24.01;90.36;99779.84;2492983;27;19932;-77
2023/06/23 00:12:57;;;;;;;;;;;;;;;24.01;90.30;99785.19;354603;27;1208;-77
2023/06/23 00:13:09;;;;;;;;;;;;;;;24.02;90.24;99784.22;354839;27;844;-77
2023/06/23 00:13:19;;;;;;;;;;;;;;;24.02;90.34;99781.53;351875;28;1361;-77
2023/06/23 00:13:34;;;;;;;;;;;;;;;24.03;90.28;99790.41;350468;28;1051;-77
2023/06/23 00:13:44;;;;;;;;;;;;;;;24.01;90.51;99785.19;350499;28;1369;-77
2023/06/23 00:13:54;;;;;;;;;;;;;;;24.00;90.55;99783.50;349874;28;1198;-77
2023/06/23 00:14:05;;;;;;;;;;;;;;;24.02;90.61;99792.22;349019;28;1297;-77
2023/06/23 00:14:15;;;;;;;;;;;;;;;24.02;90.83;99783.38;350331;28;1360;-77
2023/06/23 00:14:25;;;;;;;;;;;;;;;24.01;90.41;99785.19;350274;28;915;-77
2023/06/23 00:14:35;;;;;;;;;;;;;;;24.00;90.56;99788.84;351728;28;1241;-77
2023/06/23 00:14:46;;;;;;;;;;;;;;;24.00;90.43;99783.50;351876;28;1218;-77
2023/06/23 00:14:56;;;;;;;;;;;;;;;24.00;90.79;99788.00;351500;28;1192;-77
2023/06/23 00:15:07;;;;;;;;;;;;;;;24.00;90.80;99780.84;350297;28;1445;-77
2023/06/23 00:15:17;;;;;;;;;;;;;;;24.00;90.77;99783.50;350498;28;1384;-77
2023/06/23 00:15:28;;;;;;;;;;;;;;;24.01;90.76;99784.34;350505;28;706;-77
2023/06/23 00:15:38;;;;;;;;;;;;;;;23.99;90.65;99781.81;348820;28;1406;-77
2023/06/23 00:15:49;;;;;;;;;;;;;;;24.00;90.57;99780.84;349171;28;832;-77
2023/06/23 00:16:00;;;;;;;;;;;;;;;24.01;90.73;99789.69;350533;28;1364;-78
2023/06/23 00:16:11;;;;;;;;;;;;;;;24.01;90.60;99784.34;349237;28;1225;-77
2023/06/23 00:16:21;;;;;;;;;;;;;;;24.02;90.62;99783.38;349586;28;909;-77
2023/06/23 00:16:31;;;;;;;;;;;;;;;24.02;90.63;99783.38;350304;28;1407;-77
2023/06/23 00:16:42;;;;;;;;;;;;;;;24.02;90.62;99784.22;350288;28;1029;-77
2023/06/23 00:16:52;;;;;;;;;;;;;;;24.04;90.95;99784.91;348869;28;1366;-77
2023/06/23 00:17:02;;;;;;;;;;;;;;;24.03;90.64;99777.88;348992;28;1219;-77
2023/06/23 00:17:13;;;;;;;;;;;;;;;24.05;90.79;99788.44;347540;28;1320;-77
2023/06/23 00:17:23;;;;;;;;;;;;;;;24.04;90.73;99779.56;348310;28;1118;-77
2023/06/23 00:17:36;;;;;;;;;;;;;;;24.05;90.92;99781.25;349014;28;1200;-77
2023/06/23 00:17:46;;;;;;;;;;;;;;;24.05;90.86;99786.59;347724;28;843;-77
2023/06/23 00:17:59;;;;;;;;;;;;;;;24.03;90.64;99780.56;346398;28;761;-77
2023/06/23 00:18:10;;;;;;;;;;;;;;;24.02;90.65;99784.22;343953;28;1447;-77
2023/06/23 00:18:23;;;;;;;;;;;;;;;24.01;91.18;99779.00;346331;28;1327;-77
2023/06/23 00:18:36;;;;;;;;;;;;;;;23.99;91.01;99784.50;343713;28;1487;-77
2023/06/23 00:18:46;;;;;;;;;;;;;;;23.96;90.86;99776.75;342146;28;1327;-77
2023/06/23 00:18:57;;;;;;;;;;;;;;;23.95;90.91;99775.06;343485;28;1302;-77
2023/06/23 00:19:07;;;;;;;;;;;;;;;23.96;90.74;99782.09;342270;28;1186;-77
2023/06/23 00:19:17;;;;;;;;;;;;;;;23.96;90.84;99784.78;343652;28;887;-77
2023/06/23 00:19:28;;;;;;;;;;;;;;;23.96;91.02;99775.91;342568;28;1312;-77
2023/06/23 00:19:38;;;;;;;;;;;;;;;23.97;90.91;99778.44;341917;28;872;-77
2023/06/23 00:19:48;;;;;;;;;;;;;;;23.96;90.86;99771.41;343450;28;1357;-77
2023/06/23 00:19:58;;;;;;;;;;;;;;;23.97;91.01;99773.09;343654;28;753;-77
2023/06/23 00:20:13;;;;;;;;;;;;;;;23.98;91.04;99774.78;343891;28;1220;-77
2023/06/23 00:20:23;;;;;;;;;;;;;;;23.99;90.87;99773.81;344904;28;1005;-77
2023/06/23 00:20:33;;;;;;;;;;;;;;;23.99;91.04;99773.81;342269;28;1292;-77
2023/06/23 00:20:44;;;;;;;;;;;;;;;23.99;91.33;99776.47;344040;28;1378;-77
2023/06/23 00:20:54;;;;;;;;;;;;;;;24.00;91.19;99775.50;342889;28;2831;-77
2023/06/23 00:21:08;;;;;;;;;;;;;;;24.00;91.29;99766.63;341813;28;1221;-77
2023/06/23 00:21:19;;;;;;;;;;;;;;;23.99;91.47;99771.13;339672;29;773;-77
2023/06/23 00:21:29;;;;;;;;;;;;;;;23.99;91.57;99776.47;340574;28;1132;-77
2023/06/23 00:21:40;;;;;;;;;;;;;;;24.00;91.14;99774.66;337347;29;1191;-77
2023/06/23 00:21:52;;;;;;;;;;;;;;;24.01;91.11;99774.50;339693;29;877;-77
2023/06/23 00:22:02;;;;;;;;;;;;;;;24.01;91.24;99769.16;337548;29;1044;-77
2023/06/23 00:22:13;;;;;;;;;;;;;;;24.00;91.27;99775.50;335551;29;1322;-77
2023/06/23 00:22:23;;;;;;;;;;;;;;;24.01;91.12;99774.50;338507;29;1228;-77
2023/06/23 00:22:33;;;;;;;;;;;;;;;24.00;90.97;99770.13;338140;29;1466;-77
2023/06/23 00:22:43;;;;;;;;;;;;;;;24.00;90.70;99771.97;338104;29;1398;-77
2023/06/23 00:22:55;;;;;;;;;;;;;;;24.01;90.85;99774.50;336755;29;2049;-76
2023/06/23 00:23:05;;;;;;;;;;;;;;;24.00;90.96;99767.47;335735;29;850;-77
2023/06/23 00:23:16;;;;;;;;;;;;;;;24.00;90.86;99772.81;330283;29;2195;-78
2023/06/23 00:23:26;;;;;;;;;;;;;;;23.99;90.70;99771.13;329671;29;1874;-78
2023/06/23 00:23:37;;;;;;;;;;;;;;;23.99;90.56;99773.81;328157;30;1381;-78
2023/06/23 00:23:47;;;;;;;;;;;;;;;24.00;90.83;99767.47;327006;30;1337;-78
2023/06/23 00:23:58;;;;;;;;;;;;;;;24.00;90.92;99772.81;326936;30;1228;-77
2023/06/23 00:24:08;;;;;;;;;;;;;;;23.99;90.82;99776.47;326857;30;1343;-76
2023/06/23 00:24:18;;;;;;;;;;;;;;;23.99;90.54;99773.81;326909;30;1217;-77
2023/06/23 00:24:30;;;;;;;;;;;;;;;24.00;90.66;99778.16;326899;30;1349;-77
2023/06/23 00:24:41;;;;;;;;;;;;;;;23.99;90.90;99768.44;325399;30;1709;-77
2023/06/23 00:24:51;;;;;;;;;;;;;;;23.99;90.95;99776.47;322773;30;2099;-76
2023/06/23 00:25:02;;;;;;;;;;;;;;;23.99;90.73;99775.63;319871;30;1516;-76
2023/06/23 00:25:13;;;;;;;;;;;;;;;24.00;90.90;99777.31;320284;30;2313;-76
2023/06/23 00:25:23;;;;;;;;;;;;;;;23.99;90.86;99771.13;321055;30;2797;-77
2023/06/23 00:25:33;;;;;;;;;;;;;;;23.99;90.90;99768.44;323463;30;718;-77
2023/06/23 00:25:44;;;;;;;;;;;;;;;23.99;90.95;99776.47;322667;30;2362;-77
2023/06/23 00:25:54;;;;;;;;;;;;;;;24.00;90.75;99772.81;321584;30;1826;-77
2023/06/23 00:26:06;;;;;;;;;;;;;;;24.01;90.68;99773.66;321393;30;1361;-77
2023/06/23 00:26:17;;;;;;;;;;;;;;;24.00;90.69;99775.50;318744;30;1593;-77
2023/06/23 00:26:27;;;;;;;;;;;;;;;24.01;90.94;99773.66;316651;31;1454;-78
2023/06/23 00:26:37;;;;;;;;;;;;;;;24.00;90.87;99772.81;313693;31;2059;-78
2023/06/23 00:26:48;;;;;;;;;;;;;;;24.01;90.54;99779.00;312956;31;1244;-77
2023/06/23 00:26:58;;;;;;;;;;;;;;;24.00;90.54;99775.50;315120;31;2454;-77
2023/06/23 00:27:08;;;;;;;;;;;;;;;23.99;90.59;99779.16;315434;31;2667;-77
2023/06/23 00:27:19;;;;;;;;;;;;;;;23.99;90.53;99776.47;313040;31;1320;-77
2023/06/23 00:27:30;;;;;;;;;;;;;;;23.99;90.57;99776.47;312218;31;3267;-77
2023/06/23 00:27:40;;;;;;;;;;;;;;;23.99;90.54;99778.31;310451;31;3843;-77
2023/06/23 00:27:50;;;;;;;;;;;;;;;23.98;90.69;99777.47;310812;31;1567;-77
2023/06/23 00:28:01;;;;;;;;;;;;;;;23.99;90.66;99781.81;302338;32;798;-77
2023/06/23 00:28:11;;;;;;;;;;;;;;;23.99;90.38;99779.16;300650;32;2275;-77
2023/06/23 00:28:21;;;;;;;;;;;;;;;23.99;90.65;99773.81;300021;32;1754;-77
2023/06/23 00:28:31;;;;;;;;;;;;;;;23.99;90.31;99776.47;300161;32;1285;-79
2023/06/23 00:28:42;;;;;;;;;;;;;;;24.00;90.37;99774.66;298847;32;2074;-78
2023/06/23 00:28:52;;;;;;;;;;;;;;;24.00;90.33;99777.31;298047;32;3107;-77
2023/06/23 00:29:04;;;;;;;;;;;;;;;24.00;90.11;99778.16;299128;33;1235;-77
2023/06/23 00:29:15;;;;;;;;;;;;;;;24.01;90.38;99771.81;300156;32;3374;-77
2023/06/23 00:29:25;;;;;;;;;;;;;;;24.01;90.44;99779.84;300092;32;3881;-77
2023/06/23 00:29:35;;;;;;;;;;;;;;;24.00;90.30;99778.16;299215;32;1225;-77
2023/06/23 00:29:46;;;;;;;;;;;;;;;24.01;90.17;99779.00;297810;33;4529;-77
2023/06/23 00:29:56;;;;;;;;;;;;;;;24.00;90.42;99780.84;297229;33;5369;-77
2023/06/23 00:30:11;;;;;;;;;;;;;;;24.00;90.78;99775.50;294821;33;4294;-77
2023/06/23 00:30:22;;;;;;;;;;;;;;;24.00;90.37;99772.81;294977;33;5262;-78
2023/06/23 00:30:32;;;;;;;;;;;;;;;23.99;90.56;99779.16;295285;33;878;-78
2023/06/23 00:30:42;;;;;;;;;;;;;;;24.00;90.76;99772.81;292681;33;3203;-78
2023/06/23 00:30:53;;;;;;;;;;;;;;;23.99;90.70;99779.16;292549;33;3270;-77
2023/06/23 00:31:03;;;;;;;;;;;;;;;23.99;90.76;99781.81;294128;33;1436;-77
2023/06/23 00:31:13;;;;;;;;;;;;;;;24.00;90.68;99774.66;293220;33;4012;-77
2023/06/23 00:31:23;;;;;;;;;;;;;;;24.00;90.83;99780.00;292766;33;5172;-77
2023/06/23 00:31:34;;;;;;;;;;;;;;;23.99;91.01;99776.47;291133;34;1919;-77
2023/06/23 00:31:44;;;;;;;;;;;;;;;23.99;90.86;99781.81;289625;33;5733;-77
2023/06/23 00:31:54;;;;;;;;;;;;;;;24.00;90.97;99778.16;286842;34;6246;-77
2023/06/23 00:32:04;;;;;;;;;;;;;;;24.00;90.89;99780.00;285481;34;1464;-77
2023/06/23 00:32:15;;;;;;;;;;;;;;;23.99;90.71;99776.47;285347;34;7769;-77
2023/06/23 00:32:25;;;;;;;;;;;;;;;23.99;90.81;99781.81;284494;34;7792;-77
2023/06/23 00:32:35;;;;;;;;;;;;;;;23.99;90.77;99781.81;285630;34;825;-77
2023/06/23 00:32:45;;;;;;;;;;;;;;;23.99;90.89;99778.31;282369;34;4877;-77
2023/06/23 00:32:56;;;;;;;;;;;;;;;23.98;90.91;99773.94;282369;34;4378;-77
2023/06/23 00:33:06;;;;;;;;;;;;;;;23.98;90.99;99773.94;280838;34;5350;-77
2023/06/23 00:33:17;;;;;;;;;;;;;;;23.98;91.02;99773.94;283836;34;798;-77
2023/06/23 00:33:27;;;;;;;;;;;;;;;23.97;90.92;99781.13;279687;35;6885;-77
2023/06/23 00:33:37;;;;;;;;;;;;;;;23.98;90.81;99785.47;278940;34;7130;-77
2023/06/23 00:33:48;;;;;;;;;;;;;;;23.98;90.70;99781.97;281113;35;752;-77
2023/06/23 00:33:58;;;;;;;;;;;;;;;23.96;90.94;99776.75;278007;35;7996;-77
2023/06/23 00:36:16;;;;;;;;;;;;;;;23.96;89.39;99784.78;2471040;27;20327;-77
2023/06/23 00:36:30;;;;;;;;;;;;;;;23.96;89.02;99782.09;350260;28;1280;-77
2023/06/23 00:36:40;;;;;;;;;;;;;;;23.97;88.92;99778.44;348997;28;1243;-77
2023/06/23 00:36:50;;;;;;;;;;;;;;;23.95;89.01;99780.41;348407;28;1270;-77
2023/06/23 00:37:01;;;;;;;;;;;;;;;23.95;89.30;99780.41;347748;28;892;-77
2023/06/23 00:37:11;;;;;;;;;;;;;;;23.96;89.09;99781.25;346343;28;822;-77
2023/06/23 00:37:21;;;;;;;;;;;;;;;23.96;88.74;99787.47;346286;28;1310;-77
2023/06/23 00:37:31;;;;;;;;;;;;;;;23.97;88.89;99780.28;346260;28;809;-77
2023/06/23 00:37:42;;;;;;;;;;;;;;;23.97;89.01;99781.13;344957;28;802;-77
2023/06/23 00:37:53;;;;;;;;;;;;;;;23.97;88.88;99777.59;344983;28;845;-76
2023/06/23 00:38:03;;;;;;;;;;;;;;;23.99;89.10;99778.31;344936;28;1202;-76
2023/06/23 00:38:14;;;;;;;;;;;;;;;23.97;88.83;99781.13;344809;28;1314;-76
2023/06/23 00:38:25;;;;;;;;;;;;;;;23.96;89.04;99776.75;343718;28;1465;-77
2023/06/23 00:38:35;;;;;;;;;;;;;;;23.96;88.89;99782.09;343356;28;1348;-77
2023/06/23 00:38:45;;;;;;;;;;;;;;;23.98;88.88;99779.28;343587;28;852;-77
2023/06/23 00:38:56;;;;;;;;;;;;;;;23.97;88.67;99773.09;343698;28;897;-77
2023/06/23 00:39:08;;;;;;;;;;;;;;;23.96;89.00;99776.75;344911;28;1317;-77
2023/06/23 00:39:18;;;;;;;;;;;;;;;23.98;88.86;99780.13;344903;28;2789;-76
2023/06/23 00:39:29;;;;;;;;;;;;;;;23.98;89.16;99780.13;343883;28;6942;-78
2023/06/23 00:39:41;;;;;;;;;;;;;;;23.98;88.78;99781.97;343256;28;3086;-78
2023/06/23 00:39:52;;;;;;;;;;;;;;;23.98;88.96;99774.78;344882;28;908;-77
2023/06/23 00:40:03;;;;;;;;;;;;;;;23.98;89.28;99780.13;343335;28;3166;-77
2023/06/23 00:40:15;;;;;;;;;;;;;;;23.99;89.07;99775.63;347300;28;1021;-77
2023/06/23 00:40:26;;;;;;;;;;;;;;;23.98;89.02;99785.47;347534;28;1342;-77
2023/06/23 00:40:36;;;;;;;;;;;;;;;23.98;89.15;99774.78;346266;28;838;-77
2023/06/23 00:40:46;;;;;;;;;;;;;;;23.99;89.39;99776.47;346235;28;1335;-77
2023/06/23 00:40:57;;;;;;;;;;;;;;;23.98;89.37;99774.78;342111;28;1241;-77
2023/06/23 00:41:07;;;;;;;;;;;;;;;23.98;89.31;99776.63;341893;28;1429;-77
2023/06/23 00:41:17;;;;;;;;;;;;;;;23.98;89.65;99779.28;344971;28;1219;-77
2023/06/23 00:41:27;;;;;;;;;;;;;;;23.97;89.74;99770.44;346346;28;1329;-77
2023/06/23 00:41:38;;;;;;;;;;;;;;;23.97;89.75;99775.78;344934;28;847;-77
2023/06/23 00:41:48;;;;;;;;;;;;;;;23.98;90.04;99777.47;346335;28;1327;-78
2023/06/23 00:42:02;;;;;;;;;;;;;;;23.97;90.13;99767.75;345915;28;1606;-78
2023/06/23 00:42:12;;;;;;;;;;;;;;;23.98;90.20;99779.28;342408;28;1355;-78
2023/06/23 00:42:23;;;;;;;;;;;;;;;23.97;90.36;99774.94;342199;28;983;-78
2023/06/23 00:42:41;;;;;;;;;;;;;;;23.98;90.65;99774.78;342297;28;789;-77
2023/06/23 00:42:55;;;;;;;;;;;;;;;23.97;91.01;99773.09;338138;29;1284;-79
2023/06/23 00:43:05;;;;;;;;;;;;;;;23.98;91.08;99782.81;336843;29;1373;-78
2023/06/23 00:43:16;;;;;;;;;;;;;;;23.98;91.62;99776.63;338394;29;744;-78
2023/06/23 00:43:26;;;;;;;;;;;;;;;23.98;91.59;99785.47;338429;29;802;-77
2023/06/23 00:43:36;;;;;;;;;;;;;;;23.98;91.67;99773.94;336720;29;1358;-77
2023/06/23 00:43:50;;;;;;;;;;;;;;;23.96;92.49;99782.09;332412;29;1213;-77
2023/06/23 00:44:00;;;;;;;;;;;;;;;23.95;92.56;99780.41;330660;29;851;-77
2023/06/23 00:44:10;;;;;;;;;;;;;;;23.95;92.52;99775.06;331105;29;1226;-77
2023/06/23 00:44:21;;;;;;;;;;;;;;;23.95;92.52;99775.06;331740;29;1331;-77
2023/06/23 00:44:33;;;;;;;;;;;;;;;23.95;92.69;99775.06;333084;29;1822;-77
2023/06/23 00:44:43;;;;;;;;;;;;;;;23.96;92.63;99781.25;331733;29;1474;-77
2023/06/23 00:44:53;;;;;;;;;;;;;;;23.95;92.96;99780.41;333674;29;1889;-77
2023/06/23 00:45:04;;;;;;;;;;;;;;;23.94;93.30;99776.06;335580;29;1892;-77
2023/06/23 00:45:15;;;;;;;;;;;;;;;23.93;93.40;99771.69;335567;29;1076;-77
2023/06/23 00:45:25;;;;;;;;;;;;;;;23.94;93.24;99775.22;336315;29;1391;-77
2023/06/23 00:45:36;;;;;;;;;;;;;;;23.94;93.33;99777.88;335677;29;1337;-77
2023/06/23 00:45:46;;;;;;;;;;;;;;;23.94;93.70;99777.88;333146;29;1337;-77
2023/06/23 00:46:00;;;;;;;;;;;;;;;23.93;93.83;99774.38;332312;29;982;-77
2023/06/23 00:46:13;;;;;;;;;;;;;;;23.93;94.09;99774.38;331846;29;1362;-77
2023/06/23 00:46:24;;;;;;;;;;;;;;;23.94;93.60;99780.56;332419;29;1823;-77
2023/06/23 00:46:34;;;;;;;;;;;;;;;23.93;93.58;99771.69;330769;29;827;-77
2023/06/23 00:46:45;;;;;;;;;;;;;;;23.94;94.04;99784.09;332852;29;2210;-77
2023/06/23 00:46:55;;;;;;;;;;;;;;;23.93;93.86;99779.72;333550;29;1947;-77
2023/06/23 00:47:05;;;;;;;;;;;;;;;23.93;93.98;99777.03;331679;29;2091;-77
2023/06/23 00:47:15;;;;;;;;;;;;;;;23.94;93.94;99778.72;328245;30;1110;-77
2023/06/23 00:47:26;;;;;;;;;;;;;;;23.93;94.25;99782.41;326962;30;1452;-77
2023/06/23 00:47:36;;;;;;;;;;;;;;;23.90;95.08;99782.69;329001;30;1331;-77
2023/06/23 00:47:46;;;;;;;;;;;;;;;23.85;95.02;99780.44;329490;30;854;-77
2023/06/23 00:47:56;;;;;;;;;;;;;;;23.84;95.59;99783.25;329359;29;1219;-77
2023/06/23 00:48:08;;;;;;;;;;;;;;;23.83;95.52;99782.41;330437;29;1510;-77
2023/06/23 00:48:18;;;;;;;;;;;;;;;23.82;95.27;99782.59;328350;30;1056;-77
2023/06/23 00:48:29;;;;;;;;;;;;;;;23.83;95.29;99784.22;324831;30;2610;-77
2023/06/23 00:48:39;;;;;;;;;;;;;;;23.83;95.34;99784.22;323751;30;3205;-77
2023/06/23 00:48:49;;;;;;;;;;;;;;;23.83;95.32;99781.56;324643;30;5275;-77
2023/06/23 00:49:00;;;;;;;;;;;;;;;23.84;95.64;99783.25;321495;30;3105;-77
2023/06/23 00:49:12;;;;;;;;;;;;;;;23.84;95.16;99783.25;322150;30;3382;-77
2023/06/23 00:49:23;;;;;;;;;;;;;;;23.85;95.18;99782.25;319274;30;2720;-77
2023/06/23 00:49:35;;;;;;;;;;;;;;;23.86;95.46;99781.28;320864;30;1265;-77
2023/06/23 00:49:45;;;;;;;;;;;;;;;23.86;95.29;99781.28;320861;30;1536;-77
2023/06/23 00:49:56;;;;;;;;;;;;;;;23.87;95.45;99782.97;319192;30;1420;-77
2023/06/23 00:50:06;;;;;;;;;;;;;;;23.87;95.57;99783.81;317874;31;2513;-77
2023/06/23 00:50:17;;;;;;;;;;;;;;;23.88;95.14;99779.31;314106;31;1296;-77
2023/06/23 00:50:27;;;;;;;;;;;;;;;23.88;95.39;99784.66;314535;31;2362;-77
2023/06/23 00:50:38;;;;;;;;;;;;;;;23.88;95.33;99784.66;315587;31;3008;-77
2023/06/23 00:50:48;;;;;;;;;;;;;;;23.88;95.21;99788.16;318696;31;1212;-77
2023/06/23 00:50:58;;;;;;;;;;;;;;;23.87;95.34;99775.78;315662;31;3375;-77
2023/06/23 00:51:09;;;;;;;;;;;;;;;23.86;95.69;99779.44;316225;30;3352;-77
2023/06/23 00:51:21;;;;;;;;;;;;;;;23.85;95.57;99779.59;318610;30;1215;-77
2023/06/23 00:51:32;;;;;;;;;;;;;;;23.83;95.43;99777.06;319948;30;766;-77
2023/06/23 00:51:42;;;;;;;;;;;;;;;23.83;95.35;99776.22;317069;31;3203;-77
2023/06/23 00:51:52;;;;;;;;;;;;;;;23.81;95.65;99780.88;317644;30;2277;-77
2023/06/23 00:52:03;;;;;;;;;;;;;;;23.80;95.63;99781.88;318497;31;1388;-77
2023/06/23 00:52:13;;;;;;;;;;;;;;;23.79;95.36;99777.53;317060;31;2436;-77
2023/06/23 00:52:24;;;;;;;;;;;;;;;23.79;95.53;99785.53;316289;31;3093;-77
2023/06/23 00:52:35;;;;;;;;;;;;;;;23.79;95.38;99777.53;317649;31;861;-77
2023/06/23 00:52:49;;;;;;;;;;;;;;;23.79;95.31;99785.53;307597;31;1295;-77
2023/06/23 00:53:00;;;;;;;;;;;;;;;23.77;95.64;99782.16;308620;31;4323;-77
2023/06/23 00:53:10;;;;;;;;;;;;;;;23.76;95.65;99775.13;305700;32;4596;-77
2023/06/23 00:53:20;;;;;;;;;;;;;;;23.76;95.66;99784.00;303739;32;4841;-77
2023/06/23 00:53:30;;;;;;;;;;;;;;;23.77;95.86;99780.34;308736;32;868;-77
2023/06/23 00:53:41;;;;;;;;;;;;;;;23.78;95.86;99778.50;308350;31;4493;-77
2023/06/23 00:53:51;;;;;;;;;;;;;;;23.78;95.82;99775.84;306660;32;4450;-77
2023/06/23 00:54:02;;;;;;;;;;;;;;;23.79;95.47;99781.03;302246;32;1232;-77
2023/06/23 00:54:13;;;;;;;;;;;;;;;23.80;95.77;99776.53;303475;32;3089;-77
2023/06/23 00:54:23;;;;;;;;;;;;;;;23.80;95.86;99777.38;302541;32;3579;-77
2023/06/23 00:54:36;;;;;;;;;;;;;;;23.81;95.62;99775.53;300241;32;1244;-77
2023/06/23 00:54:47;;;;;;;;;;;;;;;23.79;95.64;99781.03;299686;32;1846;-77
2023/06/23 00:54:57;;;;;;;;;;;;;;;23.80;95.82;99776.53;298630;32;5357;-77
2023/06/23 00:55:07;;;;;;;;;;;;;;;23.80;95.73;99779.22;297557;32;5279;-77
2023/06/23 00:55:21;;;;;;;;;;;;;;;23.80;95.70;99776.53;297870;33;2186;-77
2023/06/23 00:55:32;;;;;;;;;;;;;;;23.81;95.46;99778.22;297255;33;803;-77
2023/06/23 00:55:42;;;;;;;;;;;;;;;23.82;95.34;99777.22;295237;33;7965;-77
2023/06/23 00:55:53;;;;;;;;;;;;;;;23.82;95.60;99774.56;293887;33;6609;-77
2023/06/23 00:56:03;;;;;;;;;;;;;;;23.82;95.45;99774.56;293290;33;863;-77
2023/06/23 00:56:14;;;;;;;;;;;;;;;23.81;95.74;99773.72;287531;33;6558;-77
2023/06/23 00:56:24;;;;;;;;;;;;;;;23.82;95.42;99775.41;287093;34;4543;-77
2023/06/23 00:56:35;;;;;;;;;;;;;;;23.81;95.28;99772.88;289446;34;757;-76
2023/06/23 00:56:46;;;;;;;;;;;;;;;23.83;95.34;99776.22;284627;34;1334;-77
2023/06/23 00:56:58;;;;;;;;;;;;;;;23.83;95.06;99773.53;284167;34;6555;-77
2023/06/23 00:57:10;;;;;;;;;;;;;;;23.84;95.02;99780.56;283159;34;6740;-77
2023/06/23 00:57:20;;;;;;;;;;;;;;;23.84;95.32;99777.91;285848;34;7331;-77
2023/06/23 00:57:31;;;;;;;;;;;;;;;23.84;95.03;99773.41;284599;34;2916;-77
2023/06/23 00:57:41;;;;;;;;;;;;;;;23.85;95.30;99774.25;280326;34;9185;-77
2023/06/23 00:57:52;;;;;;;;;;;;;;;23.84;95.14;99773.41;277303;35;10224;-77
2023/06/23 00:58:02;;;;;;;;;;;;;;;23.85;94.90;99777.75;277927;35;2890;-77
2023/06/23 00:58:12;;;;;;;;;;;;;;;23.86;94.91;99782.13;277043;35;9709;-77
2023/06/23 00:59:58;;;;;;;;;;;;;;;23.86;94.54;99774.09;2502028;27;20064;-78
2023/06/23 01:00:18;;;;;;;;;;;;;;;23.86;94.56;99776.78;354526;27;1859;-78
2023/06/23 01:00:29;;;;;;;;;;;;;;;23.87;94.21;99777.63;352791;28;1366;-77
2023/06/23 01:00:40;;;;;;;;;;;;;;;23.86;94.47;99774.09;351750;28;870;-77
2023/06/23 01:00:50;;;;;;;;;;;;;;;23.87;94.33;99777.63;350516;28;812;-77
2023/06/23 01:01:00;;;;;;;;;;;;;;;23.86;94.20;99775.94;350431;28;1235;-77
2023/06/23 01:01:11;;;;;;;;;;;;;;;23.86;94.28;99778.59;351897;28;822;-77
2023/06/23 01:01:21;;;;;;;;;;;;;;;23.85;94.03;99774.25;349723;28;1215;-77
2023/06/23 01:01:31;;;;;;;;;;;;;;;23.85;93.89;99775.09;349149;28;1491;-77
2023/06/23 01:01:41;;;;;;;;;;;;;;;23.85;93.84;99771.56;350421;28;848;-77
2023/06/23 01:01:52;;;;;;;;;;;;;;;23.85;93.80;99774.25;348999;28;852;-77
2023/06/23 01:02:02;;;;;;;;;;;;;;;23.84;94.05;99773.41;348976;28;1275;-77
2023/06/23 01:02:12;;;;;;;;;;;;;;;23.85;93.88;99779.59;347719;28;1448;-77
2023/06/23 01:02:22;;;;;;;;;;;;;;;23.85;93.82;99779.59;347662;28;937;-77
2023/06/23 01:02:33;;;;;;;;;;;;;;;23.86;93.50;99775.94;349003;28;1320;-77
2023/06/23 01:02:49;;;;;;;;;;;;;;;23.85;93.41;99774.25;349131;28;931;-77
2023/06/23 01:02:59;;;;;;;;;;;;;;;23.84;93.50;99772.56;347638;28;1158;-77
2023/06/23 01:03:10;;;;;;;;;;;;;;;23.84;93.45;99772.56;350155;28;1605;-77